Terminal Aerodrome Forecast
Issued by NWS Boston, MA

Home | Current Version | Previous Version | Text Only | Print | Product List | Glossary On
Versions: 1 2 3 4 5 6 7 8 9 10 11 12 13 14 15 16 17 18 19 20 21 22 23 24 25 26 27 28 29 30 31 32 33 34
000
FTUS41 KBOX 272148 AAB
TAFORH
TAF AMD
KORH 272148Z 2722/2818 24005KT P6SM -TSRA BKN040CB
     FM272300 25005KT P6SM VCSH BKN035
     FM280500 30007KT P6SM SCT130
     FM281500 33011KT P6SM FEW250=

USA.gov is the U.S. government's official web portal to all federal, state and local government web resources and services.